sensor_id;sensor_type;location;lat;lon;timestamp;pressure;altitude;pressure_sealevel;temperature;humidity
35291;BME280;21411;50.024;19.220;2022-09-02T00:00:41;99402.78;;;9.21;100.00
35291;BME280;21411;50.024;19.220;2022-09-02T00:03:07;99403.64;;;9.18;100.00
35291;BME280;21411;50.024;19.220;2022-09-02T00:05:34;99401.96;;;9.17;100.00
35291;BME280;21411;50.024;19.220;2022-09-02T00:08:00;99397.74;;;9.16;100.00
35291;BME280;21411;50.024;19.220;2022-09-02T00:10:26;99397.33;;;9.17;100.00
35291;BME280;21411;50.024;19.220;2022-09-02T00:12:52;99400.98;;;9.21;100.00
35291;BME280;21411;50.024;19.220;2022-09-02T00:15:19;99398.60;;;9.26;100.00
35291;BME280;21411;50.024;19.220;2022-09-02T00:17:45;99397.13;;;9.28;100.00
35291;BME280;21411;50.024;19.220;2022-09-02T00:20:11;99394.77;;;9.28;100.00
35291;BME280;21411;50.024;19.220;2022-09-02T00:22:37;99399.23;;;9.24;100.00
35291;BME280;21411;50.024;19.220;2022-09-02T00:25:03;99400.56;;;9.19;100.00
35291;BME280;21411;50.024;19.220;2022-09-02T00:27:29;99398.14;;;9.15;100.00
35291;BME280;21411;50.024;19.220;2022-09-02T00:29:56;99393.15;;;9.12;100.00
35291;BME280;21411;50.024;19.220;2022-09-02T00:32:22;99388.73;;;9.09;100.00
35291;BME280;21411;50.024;19.220;2022-09-02T00:34:48;99390.38;;;9.05;100.00
35291;BME280;21411;50.024;19.220;2022-09-02T00:37:14;99386.56;;;9.00;100.00
35291;BME280;21411;50.024;19.220;2022-09-02T00:39:41;99388.54;;;8.96;100.00
35291;BME280;21411;50.024;19.220;2022-09-02T00:42:07;99382.90;;;8.92;100.00
35291;BME280;21411;50.024;19.220;2022-09-02T00:44:33;99381.41;;;8.91;100.00
35291;BME280;21411;50.024;19.220;2022-09-02T00:46:59;99384.80;;;8.90;100.00
35291;BME280;21411;50.024;19.220;2022-09-02T00:49:29;99383.11;;;8.89;100.00
35291;BME280;21411;50.024;19.220;2022-09-02T00:52:03;99379.52;;;8.86;100.00
35291;BME280;21411;50.024;19.220;2022-09-02T00:54:32;99382.50;;;8.83;100.00
35291;BME280;21411;50.024;19.220;2022-09-02T00:57:00;99383.45;;;8.79;100.00
35291;BME280;21411;50.024;19.220;2022-09-02T00:59:49;99382.58;;;8.75;100.00
35291;BME280;21411;50.024;19.220;2022-09-02T01:02:18;99379.63;;;8.67;100.00
35291;BME280;21411;50.024;19.220;2022-09-02T01:04:49;99379.95;;;8.58;100.00
35291;BME280;21411;50.024;19.220;2022-09-02T01:07:15;99377.84;;;8.48;100.00
35291;BME280;21411;50.024;19.220;2022-09-02T01:09:41;99378.54;;;8.41;100.00
35291;BME280;21411;50.024;19.220;2022-09-02T01:12:07;99379.83;;;8.36;100.00
35291;BME280;21411;50.024;19.220;2022-09-02T01:14:34;99373.56;;;8.33;100.00
35291;BME280;21411;50.024;19.220;2022-09-02T01:17:01;99371.05;;;8.34;100.00
35291;BME280;21411;50.024;19.220;2022-09-02T01:19:38;99369.61;;;8.34;100.00
35291;BME280;21411;50.024;19.220;2022-09-02T01:22:15;99369.80;;;8.35;100.00
35291;BME280;21411;50.024;19.220;2022-09-02T01:24:41;99373.60;;;8.36;100.00
35291;BME280;21411;50.024;19.220;2022-09-02T01:27:08;99369.15;;;8.37;100.00
35291;BME280;21411;50.024;19.220;2022-09-02T01:29:33;99369.36;;;8.36;100.00
35291;BME280;21411;50.024;19.220;2022-09-02T01:31:59;99369.52;;;8.36;100.00
35291;BME280;21411;50.024;19.220;2022-09-02T01:34:27;99369.89;;;8.36;100.00
35291;BME280;21411;50.024;19.220;2022-09-02T01:36:54;99369.72;;;8.36;100.00
35291;BME280;21411;50.024;19.220;2022-09-02T01:39:20;99373.15;;;8.34;100.00
35291;BME280;21411;50.024;19.220;2022-09-02T01:41:46;99374.77;;;8.34;100.00
35291;BME280;21411;50.024;19.220;2022-09-02T01:44:12;99377.70;;;8.32;100.00
35291;BME280;21411;50.024;19.220;2022-09-02T01:46:40;99377.55;;;8.31;100.00
35291;BME280;21411;50.024;19.220;2022-09-02T01:49:08;99380.08;;;8.31;100.00
35291;BME280;21411;50.024;19.220;2022-09-02T01:51:35;99376.42;;;8.30;100.00
35291;BME280;21411;50.024;19.220;2022-09-02T01:54:01;99377.38;;;8.28;100.00
35291;BME280;21411;50.024;19.220;2022-09-02T01:56:27;99372.89;;;8.26;100.00
35291;BME280;21411;50.024;19.220;2022-09-02T01:58:53;99371.56;;;8.24;100.00
35291;BME280;21411;50.024;19.220;2022-09-02T02:01:20;99372.13;;;8.24;100.00
35291;BME280;21411;50.024;19.220;2022-09-02T02:03:46;99373.39;;;8.23;100.00
35291;BME280;21411;50.024;19.220;2022-09-02T02:06:14;99367.73;;;8.23;100.00
35291;BME280;21411;50.024;19.220;2022-09-02T02:08:42;99370.64;;;8.22;100.00
35291;BME280;21411;50.024;19.220;2022-09-02T02:11:09;99365.17;;;8.22;100.00
35291;BME280;21411;50.024;19.220;2022-09-02T02:13:35;99364.73;;;8.20;100.00
35291;BME280;21411;50.024;19.220;2022-09-02T02:16:02;99364.12;;;8.18;100.00
35291;BME280;21411;50.024;19.220;2022-09-02T02:18:28;99361.33;;;8.13;100.00
35291;BME280;21411;50.024;19.220;2022-09-02T02:20:54;99363.89;;;8.08;100.00
35291;BME280;21411;50.024;19.220;2022-09-02T02:23:20;99364.49;;;8.03;100.00
35291;BME280;21411;50.024;19.220;2022-09-02T02:25:49;99368.28;;;7.98;100.00
35291;BME280;21411;50.024;19.220;2022-09-02T02:28:15;99367.98;;;7.94;100.00
35291;BME280;21411;50.024;19.220;2022-09-02T02:30:41;99370.51;;;7.89;100.00
35291;BME280;21411;50.024;19.220;2022-09-02T02:33:08;99368.54;;;7.90;100.00
35291;BME280;21411;50.024;19.220;2022-09-02T02:35:33;99366.35;;;7.91;100.00
35291;BME280;21411;50.024;19.220;2022-09-02T02:37:59;99365.23;;;7.88;100.00
35291;BME280;21411;50.024;19.220;2022-09-02T02:40:27;99360.86;;;7.87;100.00
35291;BME280;21411;50.024;19.220;2022-09-02T02:42:53;99357.67;;;7.84;100.00
35291;BME280;21411;50.024;19.220;2022-09-02T02:45:20;99356.28;;;7.80;100.00
35291;BME280;21411;50.024;19.220;2022-09-02T02:47:46;99356.04;;;7.78;100.00
35291;BME280;21411;50.024;19.220;2022-09-02T02:50:15;99352.89;;;7.77;100.00
35291;BME280;21411;50.024;19.220;2022-09-02T02:52:42;99354.27;;;7.78;100.00
35291;BME280;21411;50.024;19.220;2022-09-02T02:55:10;99358.45;;;7.79;100.00
35291;BME280;21411;50.024;19.220;2022-09-02T02:57:38;99356.02;;;7.78;100.00
35291;BME280;21411;50.024;19.220;2022-09-02T03:00:08;99352.20;;;7.77;100.00
35291;BME280;21411;50.024;19.220;2022-09-02T03:02:35;99352.75;;;7.76;100.00
35291;BME280;21411;50.024;19.220;2022-09-02T03:05:03;99353.30;;;7.76;100.00
35291;BME280;21411;50.024;19.220;2022-09-02T03:07:30;99351.73;;;7.75;100.00
35291;BME280;21411;50.024;19.220;2022-09-02T03:09:56;99353.15;;;7.76;100.00
35291;BME280;21411;50.024;19.220;2022-09-02T03:12:22;99355.50;;;7.75;100.00
35291;BME280;21411;50.024;19.220;2022-09-02T03:14:49;99359.25;;;7.74;100.00
35291;BME280;21411;50.024;19.220;2022-09-02T03:17:16;99358.19;;;7.74;100.00
35291;BME280;21411;50.024;19.220;2022-09-02T03:19:42;99359.40;;;7.74;100.00
35291;BME280;21411;50.024;19.220;2022-09-02T03:22:08;99355.24;;;7.73;100.00
35291;BME280;21411;50.024;19.220;2022-09-02T03:24:36;99354.56;;;7.72;100.00
35291;BME280;21411;50.024;19.220;2022-09-02T03:27:03;99352.48;;;7.72;100.00
35291;BME280;21411;50.024;19.220;2022-09-02T03:29:29;99349.66;;;7.70;100.00
35291;BME280;21411;50.024;19.220;2022-09-02T03:31:56;99354.14;;;7.69;100.00
35291;BME280;21411;50.024;19.220;2022-09-02T03:34:21;99349.42;;;7.68;100.00
35291;BME280;21411;50.024;19.220;2022-09-02T03:36:47;99355.43;;;7.69;100.00
35291;BME280;21411;50.024;19.220;2022-09-02T03:39:14;99356.17;;;7.68;100.00
35291;BME280;21411;50.024;19.220;2022-09-02T03:41:40;99359.36;;;7.68;100.00
35291;BME280;21411;50.024;19.220;2022-09-02T03:44:06;99355.13;;;7.68;100.00
35291;BME280;21411;50.024;19.220;2022-09-02T03:46:34;99360.39;;;7.68;100.00
35291;BME280;21411;50.024;19.220;2022-09-02T03:49:00;99362.02;;;7.67;100.00
35291;BME280;21411;50.024;19.220;2022-09-02T03:51:27;99363.52;;;7.66;100.00
35291;BME280;21411;50.024;19.220;2022-09-02T03:53:53;99367.16;;;7.64;100.00
35291;BME280;21411;50.024;19.220;2022-09-02T03:56:20;99366.81;;;7.60;100.00
35291;BME280;21411;50.024;19.220;2022-09-02T03:58:48;99370.41;;;7.59;100.00
35291;BME280;21411;50.024;19.220;2022-09-02T04:01:19;99371.49;;;7.59;100.00
35291;BME280;21411;50.024;19.220;2022-09-02T04:03:46;99368.81;;;7.59;100.00
35291;BME280;21411;50.024;19.220;2022-09-02T04:06:14;99370.34;;;7.60;100.00
35291;BME280;21411;50.024;19.220;2022-09-02T04:08:41;99375.84;;;7.63;100.00
35291;BME280;21411;50.024;19.220;2022-09-02T04:11:13;99374.55;;;7.65;100.00
35291;BME280;21411;50.024;19.220;2022-09-02T04:13:40;99374.80;;;7.67;100.00
35291;BME280;21411;50.024;19.220;2022-09-02T04:16:09;99371.64;;;7.70;100.00
35291;BME280;21411;50.024;19.220;2022-09-02T04:18:36;99367.70;;;7.78;100.00
35291;BME280;21411;50.024;19.220;2022-09-02T04:21:03;99363.40;;;8.18;100.00
35291;BME280;21411;50.024;19.220;2022-09-02T04:23:30;99368.14;;;8.70;100.00
35291;BME280;21411;50.024;19.220;2022-09-02T04:25:57;99364.71;;;9.20;100.00
35291;BME280;21411;50.024;19.220;2022-09-02T04:28:22;99364.13;;;9.68;100.00
35291;BME280;21411;50.024;19.220;2022-09-02T04:30:49;99364.54;;;10.14;100.00
35291;BME280;21411;50.024;19.220;2022-09-02T04:33:16;99360.66;;;10.55;100.00
35291;BME280;21411;50.024;19.220;2022-09-02T04:35:44;99358.80;;;10.94;100.00
35291;BME280;21411;50.024;19.220;2022-09-02T04:38:11;99360.13;;;11.37;100.00
35291;BME280;21411;50.024;19.220;2022-09-02T04:40:43;99361.02;;;11.78;100.00
35291;BME280;21411;50.024;19.220;2022-09-02T04:43:10;99357.25;;;12.19;100.00
35291;BME280;21411;50.024;19.220;2022-09-02T04:45:42;99357.66;;;12.55;100.00
35291;BME280;21411;50.024;19.220;2022-09-02T04:48:09;99355.95;;;12.82;100.00
35291;BME280;21411;50.024;19.220;2022-09-02T04:50:37;99352.11;;;13.21;100.00
35291;BME280;21411;50.024;19.220;2022-09-02T04:53:03;99352.15;;;13.52;100.00
35291;BME280;21411;50.024;19.220;2022-09-02T04:55:30;99352.69;;;13.79;100.00
35291;BME280;21411;50.024;19.220;2022-09-02T04:57:57;99350.63;;;13.97;100.00
35291;BME280;21411;50.024;19.220;2022-09-02T05:00:24;99353.90;;;14.13;100.00
35291;BME280;21411;50.024;19.220;2022-09-02T05:02:53;99352.39;;;14.56;100.00
35291;BME280;21411;50.024;19.220;2022-09-02T05:05:19;99354.15;;;15.04;100.00
35291;BME280;21411;50.024;19.220;2022-09-02T05:07:45;99351.28;;;15.44;100.00
35291;BME280;21411;50.024;19.220;2022-09-02T05:10:11;99351.30;;;15.73;100.00
35291;BME280;21411;50.024;19.220;2022-09-02T05:12:41;99347.09;;;15.96;100.00
35291;BME280;21411;50.024;19.220;2022-09-02T05:15:10;99344.27;;;16.14;100.00
35291;BME280;21411;50.024;19.220;2022-09-02T05:17:36;99341.68;;;16.28;100.00
35291;BME280;21411;50.024;19.220;2022-09-02T05:20:04;99342.02;;;16.47;100.00
35291;BME280;21411;50.024;19.220;2022-09-02T05:22:33;99341.15;;;16.74;100.00
35291;BME280;21411;50.024;19.220;2022-09-02T05:24:59;99342.64;;;16.86;100.00
35291;BME280;21411;50.024;19.220;2022-09-02T05:27:25;99339.39;;;16.99;100.00
35291;BME280;21411;50.024;19.220;2022-09-02T05:29:54;99341.81;;;17.08;100.00
35291;BME280;21411;50.024;19.220;2022-09-02T05:32:21;99344.38;;;17.05;100.00
35291;BME280;21411;50.024;19.220;2022-09-02T05:34:48;99343.59;;;17.02;100.00
35291;BME280;21411;50.024;19.220;2022-09-02T05:37:15;99342.60;;;17.07;100.00
35291;BME280;21411;50.024;19.220;2022-09-02T05:39:41;99342.44;;;17.13;100.00
35291;BME280;21411;50.024;19.220;2022-09-02T05:42:07;99340.49;;;17.17;100.00
35291;BME280;21411;50.024;19.220;2022-09-02T05:44:35;99340.51;;;17.10;100.00
35291;BME280;21411;50.024;19.220;2022-09-02T05:47:01;99343.10;;;16.97;100.00
35291;BME280;21411;50.024;19.220;2022-09-02T05:49:27;99345.39;;;16.96;100.00
35291;BME280;21411;50.024;19.220;2022-09-02T05:51:57;99348.48;;;16.97;100.00
35291;BME280;21411;50.024;19.220;2022-09-02T05:54:28;99347.45;;;16.95;100.00
35291;BME280;21411;50.024;19.220;2022-09-02T05:56:57;99346.00;;;16.95;100.00
35291;BME280;21411;50.024;19.220;2022-09-02T05:59:27;99343.16;;;17.05;100.00
35291;BME280;21411;50.024;19.220;2022-09-02T06:01:54;99345.86;;;17.02;100.00
35291;BME280;21411;50.024;19.220;2022-09-02T06:04:21;99348.29;;;16.95;100.00
35291;BME280;21411;50.024;19.220;2022-09-02T06:06:49;99349.13;;;16.96;100.00
35291;BME280;21411;50.024;19.220;2022-09-02T06:09:18;99347.79;;;17.03;100.00
35291;BME280;21411;50.024;19.220;2022-09-02T06:11:45;99349.30;;;17.10;100.00
35291;BME280;21411;50.024;19.220;2022-09-02T06:14:16;99349.13;;;17.12;100.00
35291;BME280;21411;50.024;19.220;2022-09-02T06:16:43;99347.25;;;17.23;100.00
35291;BME280;21411;50.024;19.220;2022-09-02T06:19:09;99349.30;;;17.20;100.00
35291;BME280;21411;50.024;19.220;2022-09-02T06:21:36;99354.14;;;17.08;100.00
35291;BME280;21411;50.024;19.220;2022-09-02T06:24:08;99351.63;;;17.04;100.00
35291;BME280;21411;50.024;19.220;2022-09-02T06:26:35;99349.51;;;17.06;100.00
35291;BME280;21411;50.024;19.220;2022-09-02T06:29:02;99351.83;;;17.12;100.00
35291;BME280;21411;50.024;19.220;2022-09-02T06:31:30;99355.59;;;16.98;100.00
35291;BME280;21411;50.024;19.220;2022-09-02T06:33:56;99354.85;;;16.80;100.00
35291;BME280;21411;50.024;19.220;2022-09-02T06:36:25;99356.94;;;16.59;100.00
35291;BME280;21411;50.024;19.220;2022-09-02T06:38:54;99357.00;;;16.40;100.00
35291;BME280;21411;50.024;19.220;2022-09-02T06:41:25;99357.19;;;16.14;100.00
35291;BME280;21411;50.024;19.220;2022-09-02T06:43:58;99356.27;;;15.93;100.00
35291;BME280;21411;50.024;19.220;2022-09-02T06:46:28;99360.90;;;15.80;100.00
35291;BME280;21411;50.024;19.220;2022-09-02T06:48:54;99363.56;;;15.72;100.00
35291;BME280;21411;50.024;19.220;2022-09-02T06:51:35;99359.84;;;15.63;100.00
35291;BME280;21411;50.024;19.220;2022-09-02T06:54:04;99360.33;;;15.56;100.00
35291;BME280;21411;50.024;19.220;2022-09-02T06:56:32;99359.27;;;15.52;100.00
35291;BME280;21411;50.024;19.220;2022-09-02T06:58:58;99366.14;;;15.43;100.00
35291;BME280;21411;50.024;19.220;2022-09-02T07:01:27;99366.66;;;15.41;100.00
35291;BME280;21411;50.024;19.220;2022-09-02T07:03:56;99365.66;;;15.37;100.00
35291;BME280;21411;50.024;19.220;2022-09-02T07:06:46;99366.27;;;15.39;100.00
35291;BME280;21411;50.024;19.220;2022-09-02T07:09:18;99366.41;;;15.42;100.00
35291;BME280;21411;50.024;19.220;2022-09-02T07:11:44;99367.12;;;15.35;100.00
35291;BME280;21411;50.024;19.220;2022-09-02T07:14:15;99365.23;;;15.29;100.00
35291;BME280;21411;50.024;19.220;2022-09-02T07:16:44;99362.63;;;15.28;100.00
35291;BME280;21411;50.024;19.220;2022-09-02T07:19:11;99366.44;;;15.34;100.00
35291;BME280;21411;50.024;19.220;2022-09-02T07:21:39;99366.60;;;15.41;100.00
35291;BME280;21411;50.024;19.220;2022-09-02T07:24:07;99361.25;;;15.52;100.00
35291;BME280;21411;50.024;19.220;2022-09-02T07:26:34;99358.63;;;15.62;100.00
35291;BME280;21411;50.024;19.220;2022-09-02T07:29:00;99358.89;;;15.72;100.00
35291;BME280;21411;50.024;19.220;2022-09-02T07:31:27;99359.04;;;15.79;100.00
35291;BME280;21411;50.024;19.220;2022-09-02T07:33:54;99363.43;;;15.76;100.00
35291;BME280;21411;50.024;19.220;2022-09-02T07:36:27;99371.16;;;15.71;100.00
35291;BME280;21411;50.024;19.220;2022-09-02T07:38:54;99369.39;;;15.69;100.00
35291;BME280;21411;50.024;19.220;2022-09-02T07:41:20;99371.14;;;15.71;100.00
35291;BME280;21411;50.024;19.220;2022-09-02T07:43:47;99367.00;;;15.76;100.00
35291;BME280;21411;50.024;19.220;2022-09-02T07:46:15;99371.45;;;15.83;100.00
35291;BME280;21411;50.024;19.220;2022-09-02T07:48:42;99364.48;;;15.89;100.00
35291;BME280;21411;50.024;19.220;2022-09-02T07:51:09;99366.98;;;16.00;100.00
35291;BME280;21411;50.024;19.220;2022-09-02T07:53:36;99367.16;;;16.13;100.00
35291;BME280;21411;50.024;19.220;2022-09-02T07:56:03;99364.34;;;16.27;100.00
35291;BME280;21411;50.024;19.220;2022-09-02T07:58:29;99363.42;;;16.42;100.00
35291;BME280;21411;50.024;19.220;2022-09-02T08:00:56;99357.14;;;16.55;100.00
35291;BME280;21411;50.024;19.220;2022-09-02T08:03:24;99359.18;;;16.64;100.00
35291;BME280;21411;50.024;19.220;2022-09-02T08:05:51;99360.58;;;16.78;100.00
35291;BME280;21411;50.024;19.220;2022-09-02T08:08:19;99352.52;;;16.84;100.00
35291;BME280;21411;50.024;19.220;2022-09-02T08:10:48;99356.14;;;16.82;100.00
35291;BME280;21411;50.024;19.220;2022-09-02T08:13:14;99357.38;;;16.82;100.00
35291;BME280;21411;50.024;19.220;2022-09-02T08:15:42;99354.01;;;16.85;100.00
35291;BME280;21411;50.024;19.220;2022-09-02T08:18:09;99353.48;;;16.93;100.00
35291;BME280;21411;50.024;19.220;2022-09-02T08:20:35;99354.27;;;17.01;100.00
35291;BME280;21411;50.024;19.220;2022-09-02T08:23:03;99352.80;;;17.17;100.00
35291;BME280;21411;50.024;19.220;2022-09-02T08:25:32;99350.20;;;17.34;100.00
35291;BME280;21411;50.024;19.220;2022-09-02T08:27:58;99349.83;;;17.49;100.00
35291;BME280;21411;50.024;19.220;2022-09-02T08:30:25;99346.22;;;17.63;100.00
35291;BME280;21411;50.024;19.220;2022-09-02T08:32:51;99351.23;;;17.75;100.00
35291;BME280;21411;50.024;19.220;2022-09-02T08:35:17;99352.81;;;17.84;100.00
35291;BME280;21411;50.024;19.220;2022-09-02T08:37:44;99354.33;;;17.96;100.00
35291;BME280;21411;50.024;19.220;2022-09-02T08:40:21;99344.58;;;18.07;100.00
35291;BME280;21411;50.024;19.220;2022-09-02T08:42:51;99345.48;;;18.12;100.00
35291;BME280;21411;50.024;19.220;2022-09-02T08:48:03;99343.68;;;18.20;100.00
35291;BME280;21411;50.024;19.220;2022-09-02T08:50:29;99344.71;;;18.32;100.00
35291;BME280;21411;50.024;19.220;2022-09-02T08:53:15;99341.30;;;18.40;100.00
35291;BME280;21411;50.024;19.220;2022-09-02T08:55:50;99341.98;;;18.59;100.00
35291;BME280;21411;50.024;19.220;2022-09-02T08:58:20;99341.44;;;18.83;100.00
35291;BME280;21411;50.024;19.220;2022-09-02T09:06:33;99333.44;;;19.02;100.00
35291;BME280;21411;50.024;19.220;2022-09-02T09:09:13;99328.96;;;19.05;100.00
35291;BME280;21411;50.024;19.220;2022-09-02T09:16:57;99325.90;;;19.37;100.00
35291;BME280;21411;50.024;19.220;2022-09-02T09:21:53;99314.30;;;19.70;100.00
35291;BME280;21411;50.024;19.220;2022-09-02T09:24:42;99311.33;;;19.79;100.00
35291;BME280;21411;50.024;19.220;2022-09-02T09:27:15;99306.17;;;19.89;100.00
35291;BME280;21411;50.024;19.220;2022-09-02T09:29:42;99306.23;;;19.99;100.00
35291;BME280;21411;50.024;19.220;2022-09-02T09:32:28;99309.66;;;20.08;100.00
35291;BME280;21411;50.024;19.220;2022-09-02T09:37:40;99315.48;;;19.93;100.00
35291;BME280;21411;50.024;19.220;2022-09-02T09:43:10;99302.80;;;20.04;100.00
35291;BME280;21411;50.024;19.220;2022-09-02T09:45:46;99307.35;;;20.22;100.00
35291;BME280;21411;50.024;19.220;2022-09-02T09:50:42;99301.87;;;20.47;100.00
35291;BME280;21411;50.024;19.220;2022-09-02T09:56:00;99299.33;;;20.61;100.00
35291;BME280;21411;50.024;19.220;2022-09-02T10:01:12;99296.45;;;19.90;100.00
35291;BME280;21411;50.024;19.220;2022-09-02T10:06:47;99289.59;;;20.01;100.00
35291;BME280;21411;50.024;19.220;2022-09-02T10:11:55;99287.56;;;20.21;100.00
35291;BME280;21411;50.024;19.220;2022-09-02T10:14:21;99283.30;;;20.31;98.56
35291;BME280;21411;50.024;19.220;2022-09-02T10:22:31;99274.38;;;20.81;96.68
35291;BME280;21411;50.024;19.220;2022-09-02T10:25:11;99273.96;;;20.76;92.60
35291;BME280;21411;50.024;19.220;2022-09-02T10:30:22;99271.77;;;20.38;88.38
35291;BME280;21411;50.024;19.220;2022-09-02T10:36:20;99278.35;;;20.30;85.40
35291;BME280;21411;50.024;19.220;2022-09-02T10:39:02;99272.69;;;19.94;83.79
35291;BME280;21411;50.024;19.220;2022-09-02T10:41:40;99269.33;;;19.96;85.95
35291;BME280;21411;50.024;19.220;2022-09-02T10:45:13;99264.81;;;20.21;85.67
35291;BME280;21411;50.024;19.220;2022-09-02T10:47:37;99261.83;;;20.57;85.46
35291;BME280;21411;50.024;19.220;2022-09-02T10:50:21;99264.26;;;20.79;84.32
35291;BME280;21411;50.024;19.220;2022-09-02T10:57:58;99255.72;;;20.74;79.58
35291;BME280;21411;50.024;19.220;2022-09-02T11:00:27;99252.56;;;20.96;77.31
35291;BME280;21411;50.024;19.220;2022-09-02T11:03:16;99251.68;;;21.23;76.44
35291;BME280;21411;50.024;19.220;2022-09-02T11:05:50;99248.39;;;21.40;70.33
35291;BME280;21411;50.024;19.220;2022-09-02T11:08:38;99247.66;;;21.59;69.69
35291;BME280;21411;50.024;19.220;2022-09-02T11:11:26;99252.77;;;21.84;67.26
35291;BME280;21411;50.024;19.220;2022-09-02T11:16:49;99243.89;;;22.16;63.44
35291;BME280;21411;50.024;19.220;2022-09-02T11:19:22;99249.29;;;22.34;62.17
35291;BME280;21411;50.024;19.220;2022-09-02T11:21:57;99245.27;;;22.41;62.53
35291;BME280;21411;50.024;19.220;2022-09-02T11:30:07;99239.42;;;22.25;55.04
35291;BME280;21411;50.024;19.220;2022-09-02T11:32:58;99237.73;;;22.32;55.15
35291;BME280;21411;50.024;19.220;2022-09-02T11:35:37;99235.27;;;22.48;55.03
35291;BME280;21411;50.024;19.220;2022-09-02T11:38:33;99234.35;;;22.53;53.50
35291;BME280;21411;50.024;19.220;2022-09-02T11:41:18;99235.38;;;22.45;52.96
35291;BME280;21411;50.024;19.220;2022-09-02T11:43:54;99236.38;;;22.59;50.90
35291;BME280;21411;50.024;19.220;2022-09-02T11:46:47;99241.14;;;22.50;47.17
35291;BME280;21411;50.024;19.220;2022-09-02T11:54:38;99236.12;;;22.17;45.81
35291;BME280;21411;50.024;19.220;2022-09-02T11:57:13;99236.38;;;22.03;44.71
35291;BME280;21411;50.024;19.220;2022-09-02T12:08:11;99233.06;;;21.54;43.65
35291;BME280;21411;50.024;19.220;2022-09-02T12:13:05;99229.02;;;21.10;44.88
35291;BME280;21411;50.024;19.220;2022-09-02T12:15:33;99225.48;;;20.94;44.82
35291;BME280;21411;50.024;19.220;2022-09-02T12:18:27;99221.73;;;20.80;45.86
35291;BME280;21411;50.024;19.220;2022-09-02T12:26:15;99219.67;;;21.02;44.66
35291;BME280;21411;50.024;19.220;2022-09-02T12:28:43;99213.84;;;21.05;45.65
35291;BME280;21411;50.024;19.220;2022-09-02T12:33:56;99202.83;;;21.03;45.15
35291;BME280;21411;50.024;19.220;2022-09-02T12:50:31;99185.95;;;20.58;46.15
35291;BME280;21411;50.024;19.220;2022-09-02T12:53:39;99184.23;;;20.76;46.88
35291;BME280;21411;50.024;19.220;2022-09-02T12:58:40;99184.91;;;20.73;46.53
35291;BME280;21411;50.024;19.220;2022-09-02T13:06:47;99175.55;;;21.13;47.09
35291;BME280;21411;50.024;19.220;2022-09-02T13:28:57;99169.23;;;22.68;44.64
35291;BME280;21411;50.024;19.220;2022-09-02T13:31:30;99173.27;;;22.50;42.41
35291;BME280;21411;50.024;19.220;2022-09-02T13:34:04;99176.54;;;22.21;42.01
35291;BME280;21411;50.024;19.220;2022-09-02T13:36:37;99171.64;;;21.97;40.98
35291;BME280;21411;50.024;19.220;2022-09-02T13:39:19;99177.23;;;21.71;41.11
35291;BME280;21411;50.024;19.220;2022-09-02T13:41:46;99174.69;;;21.48;41.73
35291;BME280;21411;50.024;19.220;2022-09-02T13:44:20;99173.29;;;21.37;42.39
35291;BME280;21411;50.024;19.220;2022-09-02T13:46:53;99174.77;;;21.35;42.70
35291;BME280;21411;50.024;19.220;2022-09-02T13:49:40;99172.86;;;21.23;41.81
35291;BME280;21411;50.024;19.220;2022-09-02T13:52:17;99166.54;;;21.13;41.77
35291;BME280;21411;50.024;19.220;2022-09-02T13:54:46;99167.00;;;20.93;42.78
35291;BME280;21411;50.024;19.220;2022-09-02T13:57:18;99168.54;;;20.77;42.84
35291;BME280;21411;50.024;19.220;2022-09-02T13:59:51;99169.88;;;20.66;43.03
35291;BME280;21411;50.024;19.220;2022-09-02T14:02:35;99165.94;;;20.61;42.89
35291;BME280;21411;50.024;19.220;2022-09-02T14:05:15;99166.54;;;20.50;42.10
35291;BME280;21411;50.024;19.220;2022-09-02T14:07:47;99159.77;;;20.46;42.95
35291;BME280;21411;50.024;19.220;2022-09-02T14:10:17;99155.91;;;20.60;43.17
35291;BME280;21411;50.024;19.220;2022-09-02T14:12:45;99155.90;;;20.84;43.13
35291;BME280;21411;50.024;19.220;2022-09-02T14:15:14;99161.27;;;21.07;42.97
35291;BME280;21411;50.024;19.220;2022-09-02T14:17:40;99155.66;;;21.10;42.77
35291;BME280;21411;50.024;19.220;2022-09-02T14:20:20;99159.00;;;21.17;42.97
35291;BME280;21411;50.024;19.220;2022-09-02T14:22:57;99157.42;;;21.13;42.88
35291;BME280;21411;50.024;19.220;2022-09-02T14:25:26;99153.19;;;21.09;43.15
35291;BME280;21411;50.024;19.220;2022-09-02T14:27:57;99160.61;;;21.02;42.76
35291;BME280;21411;50.024;19.220;2022-09-02T14:30:29;99153.02;;;20.96;43.07
35291;BME280;21411;50.024;19.220;2022-09-02T14:35:59;99148.79;;;20.85;42.64
35291;BME280;21411;50.024;19.220;2022-09-02T14:38:28;99147.79;;;20.80;42.30
35291;BME280;21411;50.024;19.220;2022-09-02T14:41:09;99154.66;;;20.69;42.70
35291;BME280;21411;50.024;19.220;2022-09-02T14:44:16;99156.45;;;20.60;42.46
35291;BME280;21411;50.024;19.220;2022-09-02T14:46:42;99155.68;;;20.50;42.57
35291;BME280;21411;50.024;19.220;2022-09-02T14:49:21;99150.46;;;20.44;43.04
35291;BME280;21411;50.024;19.220;2022-09-02T14:51:52;99152.23;;;20.42;42.86
35291;BME280;21411;50.024;19.220;2022-09-02T14:54:39;99147.27;;;20.46;43.11
35291;BME280;21411;50.024;19.220;2022-09-02T14:59:49;99139.96;;;20.79;43.75
35291;BME280;21411;50.024;19.220;2022-09-02T15:02:23;99137.65;;;20.98;43.41
35291;BME280;21411;50.024;19.220;2022-09-02T15:04:49;99139.79;;;20.99;42.86
35291;BME280;21411;50.024;19.220;2022-09-02T15:07:15;99146.63;;;20.85;42.04
35291;BME280;21411;50.024;19.220;2022-09-02T15:09:41;99149.21;;;20.68;42.34
35291;BME280;21411;50.024;19.220;2022-09-02T15:12:12;99145.45;;;20.60;43.03